Texas Logo

Round Rock, TX Single Family Real Estate Listings

979 Total Real Estate Listings * Click on table heading to sort
Date Posted Property Type Style Address Price Living Area Lot Size Price/Sq Ft.
2018-09-18 Single Family 204 Longitude Trl Round Rock, TX 78717 $519,000 3,744 sq. ft. 7,144 sq. ft. $139
2018-09-17 Single Family 8061 Mozart St Round Rock, TX 78665 $310,000 2,601 sq. ft. 5,663 sq. ft. $119
2018-09-17 Single Family 15708 Tippys Ter Round Rock, TX 78717 $757,289 3,540 sq. ft. 10,890 sq. ft. $214
2018-09-17 Single Family 3337 Pauling Loop Round Rock, TX 78665 $357,990 2,945 sq. ft. $122
2018-09-17 Single Family 1301 Chad Dr Round Rock, TX 78665 $322,386 2,470 sq. ft. $131
2018-09-17 Single Family 1271 Chad Dr Round Rock, TX 78665 $286,934 2,048 sq. ft. $140
2018-09-17 Single Family 3536 Rosalina Loop Round Rock, TX 78665 $260,000 1,598 sq. ft. 6,621 sq. ft. $163
2018-09-17 Single Family 1501 Wildflower Dr Round Rock, TX 78664 $159,900 1,784 sq. ft. 13,416 sq. ft. $90
2018-09-16 Single Family 1400 Greenfield Dr Round Rock, TX 78664 $250,000 1,339 sq. ft. 16,553 sq. ft. $187
2018-09-16 Single Family 3945 Tavarez St Round Rock, TX 78681 $312,650 1,596 sq. ft. 6,534 sq. ft. $196
2018-09-15 Single Family 2729 Sorano Ave Round Rock, TX 78665 $449,000 3,481 sq. ft. 8,712 sq. ft. $129
2018-09-15 Single Family 1917 Mcqueeny Cv Round Rock, TX 78664 $365,000 2,253 sq. ft. $162
2018-09-15 Single Family Contemporary 4199 Fairmeadow Round Rock, TX 78665 $329,900 2,831 sq. ft. 8,394 sq. ft. $117
2018-09-15 Single Family 3974 Cole Valley Ln Round Rock, TX 78681 $469,900 2,625 sq. ft. $179
2018-09-15 Single Family 2815 Mirasol Dr Round Rock, TX 78681 $479,900 3,728 sq. ft. 9,409 sq. ft. $129
2018-09-14 Single Family 8410 Cornerwood Dr Round Rock, TX 78717 $260,000 1,215 sq. ft. 8,712 sq. ft. $214
2018-09-14 Single Family 1817 Creek Ledge Pl Round Rock, TX 78664 $334,900 3,358 sq. ft. 7,579 sq. ft. $100
2018-09-14 Single Family 4011 Mayfield Cave Trl Round Rock, TX 78681 $284,995 1,957 sq. ft. 8,756 sq. ft. $146
2018-09-14 Single Family 4531 Cervinia Dr Round Rock, TX 78665 $569,000 3,717 sq. ft. 10,672 sq. ft. $153
2018-09-14 Single Family 3319 De Soto Loop Round Rock, TX 78665 $350,000 3,055 sq. ft. 7,405 sq. ft. $115
2018-09-14 Single Family 3319 De Soto Loop Round Rock, TX 78665 $350,000 3,055 sq. ft. 7,405 sq. ft. $115
2018-09-14 Single Family 2240 Hat Bender Loop Round Rock, TX 78664 $437,449 3,268 sq. ft. 10,890 sq. ft. $134
2018-09-14 Single Family 14114 Mccoy Loop Round Rock, TX 78717 $402,140 2,285 sq. ft. 6,098 sq. ft. $176
2018-09-13 Single Family 903 Ridgeline Dr Round Rock, TX 78664 $239,900 1,553 sq. ft. 11,369 sq. ft. $154
2018-09-13 Single Family 1204 Hummingbird Ct Round Rock, TX 78681 $315,000 2,516 sq. ft. 6,534 sq. ft. $125
2018-09-13 Single Family 1802 Hermitage Dr Round Rock, TX 78681 $244,900 1,728 sq. ft. 7,187 sq. ft. $142
2018-09-13 Single Family 102 Chandler Crossing Trl Round Rock, TX 78665 $244,900 1,823 sq. ft. 8,668 sq. ft. $134
2018-09-13 Single Family 20 Tate Ln Round Rock, TX 78665 $579,500 4,169 sq. ft. 87,033 sq. ft. $139
2018-09-13 Single Family 5029 Veranda Ter Round Rock, TX 78665 $353,180 2,505 sq. ft. 6,970 sq. ft. $141
2018-09-13 Single Family 1112 Dalea Blf Round Rock, TX 78665 $325,000 2,880 sq. ft. 9,235 sq. ft. $113
2018-09-13 Single Family 1004 Kenneys Way Round Rock, TX 78665 $215,000 1,375 sq. ft. 6,752 sq. ft. $156
2018-09-13 Single Family 1913 Stratford Dr Round Rock, TX 78664 $234,900 1,976 sq. ft. 14,070 sq. ft. $119
2018-09-13 Single Family 1713 Lantana Round Rock, TX 78664 $219,900 1,672 sq. ft. 6,621 sq. ft. $132
2018-09-13 Single Family 3451 Mayfield Ranch Blvd Round Rock, TX 78681 $325,000 2,411 sq. ft. 4,792 sq. ft. $135
2018-09-13 Single Family 3250 Blue Ridge Dr Round Rock, TX 78681 $283,000 2,226 sq. ft. 7,971 sq. ft. $127
2018-09-13 Single Family 8117 Rosano St Round Rock, TX 78665 $299,990 2,443 sq. ft. 6,534 sq. ft. $123
2018-09-13 Single Family 3749 Royal Port Rush Dr Round Rock, TX 78664 $400,000 3,306 sq. ft. $121
2018-09-13 Single Family 2214 Logan Dr Round Rock, TX 78664 $214,000 1,398 sq. ft. 6,752 sq. ft. $153
2018-09-13 Single Family 4023 Barlow Dr Round Rock, TX 78681 $345,000 2,460 sq. ft. 0 sq. ft. $140
2018-09-13 Single Family 1402 Yogi Berra Cv Round Rock, TX 78665 $230,000 1,794 sq. ft. 10,454 sq. ft. $128
2018-09-12 Single Family Traditional 3300 Vintage Drive Round Rock, TX 78664 $750,000 4,673 sq. ft. 36,538 sq. ft. $160
2018-09-12 Single Family 3300 Vintage Dr Round Rock, TX 78664 $750,000 4,673 sq. ft. 36,547 sq. ft. $160
2018-09-12 Single Family 4337 Rock Hill Rd Round Rock, TX 78681 $339,900 3,247 sq. ft. 8,407 sq. ft. $105
2018-09-12 Single Family 2013 Red Oak Cir Round Rock, TX 78681 $299,995 2,048 sq. ft. 8,625 sq. ft. $146
2018-09-12 Single Family 4199 Fairmeadow Dr Round Rock, TX 78665 $329,900 2,831 sq. ft. 8,407 sq. ft. $117
2018-09-12 Single Family 4325 Angelico Ln Round Rock, TX 78681 $365,000 2,437 sq. ft. 8,102 sq. ft. $150
2018-09-12 Single Family 1000 Parkside Cir Round Rock, TX 78664 $199,900 1,306 sq. ft. 7,841 sq. ft. $153
2018-09-11 Single Family 2925 Laurel Grove Way Round Rock, TX 78681 $460,000 4,077 sq. ft. 6,882 sq. ft. $113
2018-09-11 Single Family 3264 Hidalgo Loop Round Rock, TX 78665 $419,499 3,086 sq. ft. $136
2018-09-11 Single Family 3500 Hernando Ct Round Rock, TX 78665 $483,021 2,944 sq. ft. $164
2018-09-11 Single Family 3526 Ponce De Leon Pass Round Rock, TX 78665 $519,834 3,507 sq. ft. $148
2018-09-11 Single Family 3324 Vasquez Pl Round Rock, TX 78665 $498,535 3,281 sq. ft. $152
2018-09-10 Single Family 4309 Summercrest Loop Round Rock, TX 78681 $275,000 1,794 sq. ft. 8,668 sq. ft. $153
2018-09-10 Single Family 1238 Chad Dr Round Rock, TX 78665 $275,718 1,847 sq. ft. $149
2018-09-10 Single Family 1255 Chad Dr Round Rock, TX 78665 $264,802 1,600 sq. ft. $166
2018-09-10 Single Family 1206 Homer Ln Round Rock, TX 78665 $298,752 2,122 sq. ft. $141
2018-09-10 Single Family 3332 Lauren Nicole Ln Round Rock, TX 78665 $293,187 2,122 sq. ft. $138
2018-09-10 Single Family 1218 Chad Dr Round Rock, TX 78665 $289,382 2,048 sq. ft. $141
2018-09-10 Single Family 1603 Woodhill Dr Round Rock, TX 78681 $240,000 1,520 sq. ft. 11,369 sq. ft. $158
2018-09-08 Single Family Traditional 3456 Flowstone Lane Round Rock, TX 78681 $249,500 1,706 sq. ft. 6,098 sq. ft. $146
2018-09-08 Single Family 2007 Boxwood Path Round Rock, TX 78664 $249,000 2,341 sq. ft. 6,621 sq. ft. $106
2018-09-08 Single Family 1828 Red Rock Dr Round Rock, TX 78665 $275,000 2,041 sq. ft. 9,365 sq. ft. $135
2018-09-08 Single Family 2115 Spring Hollow Path Round Rock, TX 78681 $349,500 2,612 sq. ft. 7,231 sq. ft. $134
2018-09-08 Single Family 14921 Iveans Way Round Rock, TX 78717 $449,000 2,199 sq. ft. 6,708 sq. ft. $204
2018-09-08 Single Family 19912 Bark Way Round Rock, TX 78664 $249,900 1,942 sq. ft. 10,890 sq. ft. $129
2018-09-08 Single Family 2104 Creekview Dr Round Rock, TX 78681 $329,900 2,556 sq. ft. 13,329 sq. ft. $129
2018-09-07 Single Family 2019 Windsong Trl Round Rock, TX 78664 $205,000 1,496 sq. ft. 6,534 sq. ft. $137
2018-09-07 Single Family 4416 Hunters Lodge Dr Round Rock, TX 78681 $279,900 2,313 sq. ft. 7,623 sq. ft. $121
2018-09-07 Single Family 4 Woodhollow Trl Round Rock, TX 78665 $450,000 2,693 sq. ft. 38,899 sq. ft. $167
2018-09-07 Single Family 2118 Andover Dr Round Rock, TX 78664 $190,700 1,316 sq. ft. 7,536 sq. ft. $145
2018-09-07 Single Family 9920 Mateo Cv Round Rock, TX 78717 $470,000 3,393 sq. ft. 12,676 sq. ft. $139
2018-09-07 Single Family 15825 Pearson Brothers Dr Round Rock, TX 78717 $399,999 2,016 sq. ft. 6,534 sq. ft. $198
2018-09-07 Single Family 1269 Pine Forest Cir Round Rock, TX 78665 $449,900 3,206 sq. ft. 11,848 sq. ft. $140
2018-09-07 Single Family 3907 Valley Vw Round Rock, TX 78681 $314,900 2,040 sq. ft. 21,606 sq. ft. $154
2018-09-07 Single Family 4136 Presidio Ln Round Rock, TX 78681 $304,990 1,716 sq. ft. $178
2018-09-07 Single Family 3736 Kyler Glen Rd Round Rock, TX 78681 $299,990 1,716 sq. ft. $175
2018-09-07 Single Family 15810 De Peer Cv Round Rock, TX 78717 $315,500 2,224 sq. ft. 11,935 sq. ft. $142
2018-09-07 Single Family 1214 Chad Dr Round Rock, TX 78665 $272,222 1,847 sq. ft. $147
2018-09-07 Single Family 8206 Sunburst Pkwy Round Rock, TX 78681 $475,000 3,110 sq. ft. 14,375 sq. ft. $153
2018-09-07 Single Family 9404 Billingham Trl Round Rock, TX 78717 $319,000 1,930 sq. ft. 5,968 sq. ft. $165
2018-09-07 Single Family 3307 Lauren Nicole Ln Round Rock, TX 78665 $291,502 2,122 sq. ft. $137
2018-09-07 Single Family 4231 Kingsley Ave Round Rock, TX 78681 $379,990 2,498 sq. ft. $152
2018-09-07 Single Family 609 Fort Thomas Pl Round Rock, TX 78664 $235,500 1,990 sq. ft. 5,968 sq. ft. $118
2018-09-07 Single Family 3704 Rosalina Loop Round Rock, TX 78665 $279,900 2,053 sq. ft. 6,447 sq. ft. $136
2018-09-07 Single Family 515 Heather Dr Round Rock, TX 78664 $295,800 2,837 sq. ft. 10,890 sq. ft. $104
2018-09-07 Single Family 3837 Harvey Penick Dr Round Rock, TX 78664 $399,900 2,616 sq. ft. 13,329 sq. ft. $153
2018-09-07 Single Family Round Rock, TX $379,900 3,190 sq. ft. 7,187 sq. ft. $119
2018-09-06 Single Family 3701 Kirby Cv Round Rock, TX 78681 $354,000 2,157 sq. ft. 7,841 sq. ft. $164
2018-09-06 Single Family 1801 Hermitage Dr Round Rock, TX 78681 $249,900 1,789 sq. ft. 7,362 sq. ft. $140
2018-09-06 Single Family 3033 Alton Pl Round Rock, TX 78665 $735,000 5,022 sq. ft. 18,469 sq. ft. $146
2018-09-06 Single Family 2113 Oakridge Dr Round Rock, TX 78681 $389,000 2,554 sq. ft. 14,375 sq. ft. $152
2018-09-06 Single Family 205 Highland Horizon Round Rock, TX 78717 $335,000 1,886 sq. ft. 6,273 sq. ft. $178
2018-09-06 Single Family 402 Payne Stewart Dr Round Rock, TX 78664 $299,500 2,619 sq. ft. 8,756 sq. ft. $114
2018-09-06 Single Family 8105 Rosano St Round Rock, TX 78665 $235,000 1,603 sq. ft. 6,752 sq. ft. $147
2018-09-05 Single Family 8062 Mozart St Round Rock, TX 78665 $325,000 2,815 sq. ft. $115
2018-09-05 Single Family 1307 Sagebrush Dr Round Rock, TX 78681 $259,900 1,362 sq. ft. 7,579 sq. ft. $191
2018-09-05 Single Family 1944 Rayburn Loop Round Rock, TX 78664 $350,000 3,267 sq. ft. 0 sq. ft. $107
2018-09-05 Single Family 2424 Roundabout Ln Round Rock, TX 78664 $270,000 2,019 sq. ft. 5,663 sq. ft. $134
2018-09-05 Single Family 897 Centerra Hills Cir Round Rock, TX 78665 $317,897 2,451 sq. ft. $130
2018-09-05 Single Family 703 Ivy Ct Round Rock, TX 78681 $355,500 3,140 sq. ft. 6,882 sq. ft. $113
2018-09-04 Single Family 4546 Miraval Loop Round Rock, TX 78665 $429,900 3,035 sq. ft. 18,818 sq. ft. $142
2018-09-04 Single Family 3946 Stanyan Dr Round Rock, TX 78681 $467,710 2,856 sq. ft. $164
2018-09-04 Single Family 3824 Lombard Dr Round Rock, TX 78681 $489,195 2,856 sq. ft. $171
2018-09-04 Single Family 1821 Greyleaf Path Round Rock, TX 78665 $360,000 2,934 sq. ft. 7,754 sq. ft. $123
2018-09-03 Single Family 1052 Dyer Crossing Way Round Rock, TX 78665 $365,000 3,246 sq. ft. 7,797 sq. ft. $112
2018-09-03 Single Family Traditional 1822 Bluffwood Place Round Rock, TX 78665 $389,000 3,193 sq. ft. 8,799 sq. ft. $122
2018-09-02 Single Family 3601 Flora Vista Loop Round Rock, TX 78681 $299,000 2,100 sq. ft. 13,896 sq. ft. $142
2018-09-01 Single Family 3721 Galena Hills Loop Round Rock, TX 78681 $339,720 2,837 sq. ft. 8,712 sq. ft. $120
2018-09-01 Single Family 8216 Menlo Park Pl Round Rock, TX 78681 $365,000 3,032 sq. ft. 6,708 sq. ft. $120
2018-09-01 Single Family 1835 Chino Valley Trl Round Rock, TX 78665 $289,900 2,607 sq. ft. 6,098 sq. ft. $111
2018-09-01 Single Family 802 Meadow Bluff Ct Round Rock, TX 78665 $285,000 2,130 sq. ft. 10,324 sq. ft. $134
2018-09-01 Single Family 212 Chandler Crossing Trl Round Rock, TX 78665 $252,900 1,823 sq. ft. 6,098 sq. ft. $139
2018-09-01 Single Family 532 Centerbrook Pl Round Rock, TX 78665 $279,000 1,764 sq. ft. 11,238 sq. ft. $158
2018-09-01 Single Family 2407 Messick Loop Round Rock, TX 78681 $294,900 1,849 sq. ft. 11,587 sq. ft. $159
2018-09-01 Single Family Round Rock, TX $539,900 4,769 sq. ft. 12,371 sq. ft. $113
2018-08-31 Single Family 3901 Links Ln Round Rock, TX 78664 $299,000 2,720 sq. ft. 8,276 sq. ft. $110
2018-08-31 Single Family 524 Oak Dr Round Rock, TX 78664 $244,994 1,699 sq. ft. 21,039 sq. ft. $144
2018-08-31 Single Family 3709 Bainbridge St Round Rock, TX 78681 $310,000 2,451 sq. ft. 2,614 sq. ft. $126
2018-08-31 Single Family 3750 E Palm Valley Round Rock, TX 78665 $319,450 2,207 sq. ft. 6,970 sq. ft. $145
2018-08-31 Single Family 1002 Capilano Cv Round Rock, TX 78664 $525,000 4,075 sq. ft. 10,803 sq. ft. $129
2018-08-31 Single Family 805 Fairway Green Cv Round Rock, TX 78664 $214,900 1,143 sq. ft. 6,970 sq. ft. $188
2018-08-31 Single Family 3820 Lombard St Round Rock, TX 78681 $489,095 3,209 sq. ft. $152
2018-08-31 Single Family 3929 Stanyan Dr Round Rock, TX 78681 $472,700 2,856 sq. ft. $166
2018-08-31 Single Family 2709 Chiquita Ct Round Rock, TX 78665 $309,900 2,226 sq. ft. $139
2018-08-31 Single Family 9017 Brimstone Ln Round Rock, TX 78717 $359,500 2,498 sq. ft. 8,712 sq. ft. $144
2018-08-31 Single Family 6 Bluff Vw Round Rock, TX 78664 $397,500 2,710 sq. ft. 11,587 sq. ft. $147
2018-08-31 Single Family 4352 Hannover Way Round Rock, TX 78681 $404,990 3,085 sq. ft. $131
2018-08-31 Single Family 4705 Knollwood Cir Round Rock, TX 78681 $500,000 2,176 sq. ft. 101,930 sq. ft. $230
2018-08-31 Single Family 4360 Hannover Way Round Rock, TX 78681 $394,990 2,720 sq. ft. $145
2018-08-31 Single Family 5068 Savio Dr Round Rock, TX 78665 $599,000 3,866 sq. ft. 19,036 sq. ft. $155
2018-08-31 Single Family 5750 Porano Cir Round Rock, TX 78665 $346,000 2,783 sq. ft. $124
2018-08-31 Single Family 2936 Saint Paul Rivera Round Rock, TX 78665 $385,000 3,110 sq. ft. 7,405 sq. ft. $124
2018-08-31 Single Family 1117 Alexandria Way Round Rock, TX 78665 $249,900 1,943 sq. ft. 6,447 sq. ft. $129
2018-08-31 Single Family 2936 Saint Paul Rivera Round Rock, TX 78665 $385,000 3,110 sq. ft. 7,405 sq. ft. $124
2018-08-31 Single Family 2708 Santa Rosita Ct Round Rock, TX 78665 $385,000 2,599 sq. ft. $148
2018-08-30 Single Family 1007 Terra St Round Rock, TX 78665 $205,000 1,353 sq. ft. 6,316 sq. ft. $152
2018-08-30 Single Family 1119 Ledbetter St Round Rock, TX 78681 $850,000 4,096 sq. ft. 53,579 sq. ft. $208
2018-08-30 Single Family 5625 Sacco St Round Rock, TX 78665 $253,950 1,819 sq. ft. 6,534 sq. ft. $140
2018-08-30 Single Family 6721 Leonardo Dr Round Rock, TX 78665 $355,000 2,670 sq. ft. $133
2018-08-30 Single Family 15320 Morgan Creek Ct Round Rock, TX 78717 $499,900 3,717 sq. ft. 12,502 sq. ft. $134
2018-08-30 Single Family 16522 Avaranche Way Round Rock, TX 78681 $399,995 3,244 sq. ft. 9,845 sq. ft. $123
2018-08-30 Single Family 5617 Sacco St Round Rock, TX 78665 $302,450 2,577 sq. ft. 6,534 sq. ft. $117
2018-08-30 Single Family 5613 Sacco St Round Rock, TX 78665 $317,450 2,465 sq. ft. 6,534 sq. ft. $129
2018-08-30 Single Family 5609 Sacco St Round Rock, TX 78665 $286,450 2,448 sq. ft. 6,534 sq. ft. $117
2018-08-30 Single Family Traditional 901 Mohican Round Rock, TX 78665 $255,000 2,082 sq. ft. 6,704 sq. ft. $122
2018-08-30 Single Family 1624 Scenic Loop Round Rock, TX 78681 $304,900 1,906 sq. ft. 10,977 sq. ft. $160
2018-08-30 Single Family 3105 Aquila Ct Round Rock, TX 78681 $300,000 2,062 sq. ft. 5,706 sq. ft. $145
2018-08-30 Single Family 1033 Forest Bluff Trl Round Rock, TX 78665 $345,000 2,021 sq. ft. 13,765 sq. ft. $171
2018-08-30 Single Family 505 Dry Creek Cv Round Rock, TX 78681 $210,000 1,093 sq. ft. 6,708 sq. ft. $192
2018-08-30 Single Family 2002 Zephyr Ln Round Rock, TX 78664 $249,000 1,775 sq. ft. 6,534 sq. ft. $140
2018-08-30 Single Family 3712 Hawk View St Round Rock, TX 78665 $240,000 2,309 sq. ft. 6,229 sq. ft. $104
2018-08-30 Single Family 3865 Skyview Way Round Rock, TX 78681 $399,900 2,802 sq. ft. 436 sq. ft. $143
2018-08-29 Single Family 1607 Greenlawn Blvd Round Rock, TX 78664 $170,000 1,460 sq. ft. 4,748 sq. ft. $116
2018-08-29 Single Family 2108 Mayfield Dr Round Rock, TX 78681 $1,189,000 4,235 sq. ft. 151,153 sq. ft. $281
2018-08-29 Single Family 7024 Donato Pl Round Rock, TX 78665 $270,000 1,743 sq. ft. $155
2018-08-29 Single Family 3651 Sandy Brook Dr Round Rock, TX 78665 $269,100 1,966 sq. ft. 3,920 sq. ft. $137
2018-08-29 Single Family 3734 Norman Loop Round Rock, TX 78664 $274,900 2,452 sq. ft. 10,062 sq. ft. $112
2018-08-29 Single Family 3651 Sandy Brook Dr Round Rock, TX 78665 $257,450 1,727 sq. ft. 3,485 sq. ft. $149
2018-08-29 Single Family 435 Freeman Park Pl Round Rock, TX 78665 $431,422 2,663 sq. ft. 8,843 sq. ft. $162
2018-08-29 Single Family Traditional 2713 Plantation Round Rock, TX 78681 $430,000 3,635 sq. ft. 6,996 sq. ft. $118
2018-08-29 Single Family Traditional 212 Crossing Round Rock, TX 78665 $204,900 1,358 sq. ft. 7,850 sq. ft. $151
2018-08-29 Single Family Traditional 1320 Becca Teal Round Rock, TX 78681 $440,000 3,645 sq. ft. 10,132 sq. ft. $121
2018-08-29 Single Family 1616 Balsam Way Round Rock, TX 78665 $195,000 2,543 sq. ft. 6,055 sq. ft. $77
2018-08-29 Single Family Traditional 2141 Woodston Round Rock, TX 78681 $314,000 2,250 sq. ft. 6,835 sq. ft. $140
2018-08-29 Single Family Traditional 2816 Chatelle Drive Round Rock, TX 78681 $430,000 3,461 sq. ft. 8,738 sq. ft. $124
2018-08-29 Single Family 744 Bent Wood Pl Round Rock, TX 78665 $250,000 2,336 sq. ft. 6,534 sq. ft. $107
2018-08-29 Single Family 3532 Pine Needle Cir Round Rock, TX 78681 $334,900 2,495 sq. ft. 6,839 sq. ft. $134
2018-08-29 Single Family 809 Centerra Hills Cir Round Rock, TX 78665 $272,827 1,573 sq. ft. 6,578 sq. ft. $173
2018-08-29 Single Family 909 Centerra Hills Cir Round Rock, TX 78665 $275,524 1,573 sq. ft. 6,578 sq. ft. $175
2018-08-29 Single Family Traditional 1116 Waimea Round Rock, TX 78681 $549,000 4,272 sq. ft. 9,261 sq. ft. $129
2018-08-29 Single Family 1301 Kenneys Way Round Rock, TX 78665 $220,000 2,055 sq. ft. 9,670 sq. ft. $107
2018-08-29 Single Family 3308 Donatello Cv Round Rock, TX 78665 $327,157 1,832 sq. ft. 12,197 sq. ft. $179
2018-08-28 Single Family 2907 Cross Hill Run Round Rock, TX 78665 $408,841 2,888 sq. ft. 8,276 sq. ft. $142
2018-08-28 Single Family 4166 Kingsley Ave Round Rock, TX 78681 $349,990 2,437 sq. ft. $144
2018-08-27 Single Family 1321 Logan St Round Rock, TX 78664 $203,900 1,329 sq. ft. 5,576 sq. ft. $153
2018-08-27 Single Family 4100 Massey Way Round Rock, TX 78681 $370,000 2,876 sq. ft. 11,413 sq. ft. $129
2018-08-27 Single Family Other-See Remarks 2301 Mayfield Round Rock, TX 78681 $1,550,000 3,874 sq. ft. 284,447 sq. ft. $400
2018-08-26 Single Family 4128 Presidio Ln Round Rock, TX 78681 $299,990 1,601 sq. ft. 0 sq. ft. $187
2018-08-25 Single Family 4014 Geary St Round Rock, TX 78681 $295,000 2,687 sq. ft. $110
2018-08-25 Single Family 3805 Bainbridge Cv Round Rock, TX 78681 $499,435 3,174 sq. ft. 10,019 sq. ft. $157
2018-08-25 Single Family 4120 Green Vista Pl Round Rock, TX 78665 $450,000 4,191 sq. ft. 7,667 sq. ft. $107
2018-08-25 Single Family 1508 Provident Ln Round Rock, TX 78664 $205,000 1,282 sq. ft. 7,928 sq. ft. $160
2018-08-25 Single Family 1804 Rachel Ln Round Rock, TX 78664 $254,900 2,808 sq. ft. 7,231 sq. ft. $91
2018-08-25 Single Family 4507 Heritage Well Ln Round Rock, TX 78665 $255,000 1,847 sq. ft. 9,496 sq. ft. $138
2018-08-24 Single Family 632 Fort Thomas Pl Round Rock, TX 78664 $234,900 1,591 sq. ft. 5,750 sq. ft. $148
2018-08-24 Single Family 9800 Valderrama Dr Round Rock, TX 78717 $614,000 3,829 sq. ft. 29,185 sq. ft. $160
2018-08-24 Single Family 3837 Skyview Way Round Rock, TX 78681 $399,900 2,870 sq. ft. $139
2018-08-24 Single Family 16527 Avaranche Way Round Rock, TX 78681 $346,000 2,696 sq. ft. 8,233 sq. ft. $128
2018-08-24 Single Family 3344 Hidalgo Loop Round Rock, TX 78665 $320,000 2,277 sq. ft. $141
2018-08-24 Single Family 3602 Nicholaus Cv Round Rock, TX 78664 $559,900 3,682 sq. ft. 18,208 sq. ft. $152
2018-08-24 Single Family 1000 Powderhorn Dr Round Rock, TX 78681 $225,000 1,381 sq. ft. 8,538 sq. ft. $163
2018-08-24 Single Family 3713 Fossilwood Way Round Rock, TX 78681 $320,000 2,634 sq. ft. 6,534 sq. ft. $121
2018-08-24 Single Family 16609 Ennis Trl Round Rock, TX 78717 $329,000 1,915 sq. ft. 6,316 sq. ft. $172
2018-08-24 Single Family 1500 Robb Ln Round Rock, TX 78664 $269,900 1,759 sq. ft. 16,074 sq. ft. $153
2018-08-24 Single Family 3105 Hailey Ln Round Rock, TX 78664 $279,000 3,116 sq. ft. 8,799 sq. ft. $90
2018-08-24 Single Family 221 Gennaker Dr Round Rock, TX 78681 $559,000 3,132 sq. ft. 6,098 sq. ft. $178
2018-08-24 Single Family 3233 Aurelia Ln Round Rock, TX 78665 $359,900 2,083 sq. ft. 0 sq. ft. $173
2018-08-24 Single Family 3592 Rosalina Loop Round Rock, TX 78665 $260,000 1,730 sq. ft. 6,608 sq. ft. $150
2018-08-24 Single Family 3592 Rosalina Loop Round Rock, TX 78665 $260,000 1,730 sq. ft. 6,621 sq. ft. $150
2018-08-24 Single Family 2110 Rosemary Ln Round Rock, TX 78664 $174,999 1,692 sq. ft. 6,665 sq. ft. $103
2018-08-24 Single Family 508 Edwards Dr Round Rock, TX 78664 $150,000 930 sq. ft. 8,146 sq. ft. $161
2018-08-24 Single Family 1600 Old Settlement Rd Round Rock, TX 78664 $695,000 3,588 sq. ft. 97,836 sq. ft. $194
2018-08-23 Single Family 3825 Azur Ln Round Rock, TX 78681 $419,900 3,632 sq. ft. $116
2018-08-23 Single Family 8310 Caledonia Dr Round Rock, TX 78717 $325,000 2,013 sq. ft. 8,276 sq. ft. $161
2018-08-23 Single Family 1532 Weiskopf Loop Round Rock, TX 78664 $550,000 4,041 sq. ft. 15,856 sq. ft. $136
2018-08-23 Single Family 1614 Greenside Dr Round Rock, TX 78665 $359,500 3,208 sq. ft. 8,843 sq. ft. $112
2018-08-23 Single Family 5847 Carrara Pass Round Rock, TX 78664 $349,478 2,598 sq. ft. 7,405 sq. ft. $135
2018-08-23 Single Family 3802 Vonnegut Ct Round Rock, TX 78665 $218,500 1,550 sq. ft. 0 sq. ft. $141
2018-08-23 Single Family 3451 Mayfield Ranch Blvd Round Rock, TX 78681 $332,000 2,628 sq. ft. $126
2018-08-23 Single Family 3651 Sandy Brook Dr Round Rock, TX 78665 $256,030 1,727 sq. ft. 3,485 sq. ft. $148
2018-08-23 Single Family 3511 Cheyenne St Round Rock, TX 78665 $234,900 1,864 sq. ft. 0 sq. ft. $126
2018-08-23 Single Family 1001 Paul Thomas Dr Round Rock, TX 78717 $295,000 1,416 sq. ft. 4,487 sq. ft. $208
2018-08-23 Single Family 3040 Haynes Dr Round Rock, TX 78665 $551,491 2,924 sq. ft. $189
2018-08-23 Single Family 2607 Andres Way Round Rock, TX 78664 $245,000 2,222 sq. ft. 7,797 sq. ft. $110
2018-08-23 Single Family 8631 Ephraim Rd Round Rock, TX 78717 $285,000 1,715 sq. ft. 7,667 sq. ft. $166
2018-08-23 Single Family 1248 Pine Forest Cir Round Rock, TX 78665 $475,000 4,009 sq. ft. 8,973 sq. ft. $118
2018-08-23 Single Family 3106 Kissatchie Trl Round Rock, TX 78664 $255,000 2,172 sq. ft. 6,403 sq. ft. $117
2018-08-23 Single Family 3721 Ashbury Road Round Rock, TX 78681 $365,000 2,939 sq. ft. $124
2018-08-23 Single Family 3504 Palmer Cv Round Rock, TX 78664 $675,000 3,779 sq. ft. 21,780 sq. ft. $179
2018-08-23 Single Family 3328 De Soto Loop Round Rock, TX 78665 $304,900 2,234 sq. ft. 6,534 sq. ft. $136
2018-08-23 Single Family 2142 Hilton Head Dr Round Rock, TX 78664 $400,000 3,414 sq. ft. 11,979 sq. ft. $117
2018-08-23 Single Family 810 Chisholm Valley Dr Round Rock, TX 78681 $219,800 1,374 sq. ft. 6,970 sq. ft. $160
2018-08-23 Single Family 2500 Resnick Dr Round Rock, TX 78681 $485,000 3,683 sq. ft. 11,631 sq. ft. $132
2018-08-22 Single Family 2002 Mayfield Dr Round Rock, TX 78681 $795,000 2,604 sq. ft. 94,525 sq. ft. $305
2018-08-22 Single Family 16910 Village Oak Loop Round Rock, TX 78717 $212,500 1,148 sq. ft. 5,009 sq. ft. $185
2018-08-22 Single Family 3839 Derby Trl Round Rock, TX 78681 $325,000 2,789 sq. ft. 12,371 sq. ft. $117
2018-08-22 Single Family 3512 De Soto Loop Round Rock, TX 78665 $411,357 2,793 sq. ft. 7,405 sq. ft. $147
2018-08-22 Single Family Ranch; Traditional 4219 Pasada Lane Round Rock, TX 78681 $340,000 2,063 sq. ft. 17,424 sq. ft. $165
2018-08-22 Single Family Ranch; Traditional 4219 Pasada Round Rock, TX 78681 $340,000 2,063 sq. ft. 17,420 sq. ft. $165
2018-08-22 Single Family 2637 Ravenwood Dr Round Rock, TX 78665 $405,000 3,524 sq. ft. 13,242 sq. ft. $115
2018-08-22 Single Family 2903 Donnell Drive Round Rock, TX 78664 $217,000 1,514 sq. ft. 8,159 sq. ft. $143
2018-08-22 Single Family Traditional 3931 Grayling Round Rock, TX 78681 $272,500 2,345 sq. ft. 6,765 sq. ft. $116
2018-08-22 Single Family 2903 Donnell Dr Round Rock, TX 78664 $217,000 1,514 sq. ft. 7,841 sq. ft. $143
2018-08-22 Single Family 533 Fort Thomas Pl Round Rock, TX 78664 $200,000 1,534 sq. ft. 6,578 sq. ft. $130
2018-08-21 Single Family 7309 Magic Mountain Ln Round Rock, TX 78681 $315,000 2,178 sq. ft. 7,100 sq. ft. $145
2018-08-21 Single Family 3279 Hidalgo Loop Round Rock, TX 78665 $379,857 2,583 sq. ft. $147
2018-08-21 Single Family 1011 Forest Bluff Trl Round Rock, TX 78665 $334,995 2,041 sq. ft. 13,155 sq. ft. $164
2018-08-21 Single Family 15705 De Peer Ave Round Rock, TX 78717 $289,500 1,944 sq. ft. 7,405 sq. ft. $149
2018-08-21 Single Family 2601 Chandler Creek Blvd Round Rock, TX 78665 $233,455 1,619 sq. ft. 4,792 sq. ft. $144
2018-08-21 Single Family 3219 Ash Glen Ln Round Rock, TX 78681 $399,000 3,060 sq. ft. 10,019 sq. ft. $130
2018-08-21 Single Family 4219 Pasada Ln Round Rock, TX 78681 $340,000 2,063 sq. ft. 17,424 sq. ft. $165
2018-08-21 Single Family 408 White Wing Way Round Rock, TX 78664 $239,900 1,541 sq. ft. 11,195 sq. ft. $156
2018-08-21 Single Family 2106 Mimosa Trl Round Rock, TX 78664 $245,000 1,537 sq. ft. $159
2018-08-20 Single Family 7634 Leonardo Dr Round Rock, TX 78665 $289,900 2,661 sq. ft. $109
2018-08-20 Single Family 316 Doucet Cv Round Rock, TX 78665 $299,999 2,638 sq. ft. $114
2018-08-20 Single Family 5813 Carrara Pass Round Rock, TX 78665 $257,900 1,956 sq. ft. $132
2018-08-20 Single Family 2040 Port Ellen Bnd Round Rock, TX 78664 $254,990 1,754 sq. ft. $145
2018-08-20 Single Family 2809 Bridekirk Dr Round Rock, TX 78664 $290,990 2,372 sq. ft. $123
2018-08-20 Single Family 2801 Bridekirk Dr Round Rock, TX 78664 $294,990 2,372 sq. ft. $124
2018-08-20 Single Family Traditional 504 Brookstone Round Rock, TX 78681 $315,000 2,352 sq. ft. 7,575 sq. ft. $134
2018-08-20 Single Family 2804 Angelina Dr Round Rock, TX 78665 $295,000 2,811 sq. ft. 10,890 sq. ft. $105
2018-08-20 Single Family 9532 Morgan Creek Dr Round Rock, TX 78717 $390,000 2,710 sq. ft. 6,708 sq. ft. $144
2018-08-20 Single Family 1563 Homewood Cir Round Rock, TX 78665 $320,000 2,637 sq. ft. 11,892 sq. ft. $121
2018-08-19 Single Family Round Rock, TX $354,800 2,779 sq. ft. 11,761 sq. ft. $128
2018-08-19 Single Family 3197 Hidalgo Loop Round Rock, TX 78665 $370,571 2,618 sq. ft. 7,405 sq. ft. $142
2018-08-19 Single Family 3536 De Soto Loop Round Rock, TX 78665 $337,907 2,250 sq. ft. 7,405 sq. ft. $150
2018-08-19 Single Family 1104 Creekview Dr Round Rock, TX 78681 $289,900 2,473 sq. ft. 14,593 sq. ft. $117
2018-08-19 Single Family 3533 De Soto Loop Round Rock, TX 78665 $371,258 2,400 sq. ft. 7,405 sq. ft. $155
2018-08-19 Single Family 1406 Ashley Dr Round Rock, TX 78665 $230,000 1,685 sq. ft. 7,754 sq. ft. $136
2018-08-19 Single Family 3520 De Soto Loop Round Rock, TX 78665 $384,057 2,950 sq. ft. 7,405 sq. ft. $130
2018-08-18 Single Family 3477 De Soto Loop Round Rock, TX 78665 $398,180 2,700 sq. ft. 7,405 sq. ft. $147
2018-08-18 Single Family 4202 Lindo Loop Round Rock, TX 78681 $398,000 2,947 sq. ft. 8,886 sq. ft. $135
2018-08-18 Single Family 9713 Mcknight Loop Round Rock, TX 78717 $424,388 2,439 sq. ft. 3,920 sq. ft. $174
2018-08-18 Single Family 14701 Stillman Bnd Round Rock, TX 78717 $368,660 1,851 sq. ft. 4,356 sq. ft. $199
2018-08-18 Single Family 14210 Mccoy Loop Round Rock, TX 78717 $391,793 2,236 sq. ft. 5,227 sq. ft. $175
2018-08-18 Single Family Craftsman 1203 Mills Meadow Round Rock, TX 78664 $280,000 1,976 sq. ft. 9,945 sq. ft. $142
2018-08-18 Single Family 14100 Mccoy Loop Round Rock, TX 78717 $444,117 2,328 sq. ft. 3,920 sq. ft. $191
2018-08-18 Single Family 14102 Mccoy Loop Round Rock, TX 78717 $406,224 2,447 sq. ft. 436 sq. ft. $166
2018-08-18 Single Family 14214 Mccoy Loop Round Rock, TX 78717 $433,061 2,328 sq. ft. 3,920 sq. ft. $186
2018-08-18 Single Family 14112 Mccoy Loop Round Rock, TX 78717 $410,811 2,447 sq. ft. 436 sq. ft. $168
2018-08-18 Single Family 14216 Mccoy Loop Round Rock, TX 78717 $419,908 2,328 sq. ft. 3,920 sq. ft. $180
2018-08-18 Single Family 14108 Mccoy Loop Round Rock, TX 78717 $397,924 2,447 sq. ft. 436 sq. ft. $163
2018-08-18 Single Family 14208 Mccoy Loop Round Rock, TX 78717 $406,301 2,447 sq. ft. 6,098 sq. ft. $166
2018-08-18 Single Family 23 Shady Rock Ct Round Rock, TX 78665 $550,000 5,566 sq. ft. 51,401 sq. ft. $99
2018-08-18 Single Family 1203 Mills Meadow Dr Round Rock, TX 78664 $280,000 1,976 sq. ft. 9,932 sq. ft. $142
2018-08-17 Single Family 2920 Todd Trl Round Rock, TX 78665 $354,900 3,273 sq. ft. 9,148 sq. ft. $108
2018-08-17 Single Family 1008 Kenneys Way Round Rock, TX 78665 $229,900 1,947 sq. ft. 6,621 sq. ft. $118
2018-08-17 Single Family 4508 Monterosa Ln Round Rock, TX 78665 $394,900 3,245 sq. ft. 9,322 sq. ft. $122
2018-08-17 Single Family 9616 Lavon Bnd Round Rock, TX 78717 $638,870 2,688 sq. ft. 11,326 sq. ft. $238
2018-08-17 Single Family 7109 Avignon Dr Round Rock, TX 78681 $420,000 3,813 sq. ft. 9,932 sq. ft. $110
2018-08-17 Single Family 2105 Woodston Dr Round Rock, TX 78681 $290,000 2,139 sq. ft. 6,970 sq. ft. $136
2018-08-17 Single Family 1620 Alazan Cv Round Rock, TX 78664 $235,000 2,351 sq. ft. 7,405 sq. ft. $100
2018-08-17 Single Family 16305 Rockgate Dr Round Rock, TX 78717 $390,000 2,422 sq. ft. 8,494 sq. ft. $161
2018-08-17 Single Family 4809 Terraza Trl Round Rock, TX 78665 $328,000 2,414 sq. ft. 7,841 sq. ft. $136
2018-08-17 Single Family 2405 Cloud Peak Ln Round Rock, TX 78681 $305,000 2,493 sq. ft. 7,144 sq. ft. $122
2018-08-17 Single Family 123 Bonwood Dr Round Rock, TX 78681 $274,000 1,876 sq. ft. 9,148 sq. ft. $146
2018-08-17 Single Family 3416 Winding River Trl Round Rock, TX 78681 $259,000 1,982 sq. ft. 11,543 sq. ft. $131
2018-08-17 Single Family 4024 Darryl St Round Rock, TX 78681 $314,900 2,771 sq. ft. $114
2018-08-16 Single Family 1408 Sheltie Ln Round Rock, TX 78664 $208,000 1,274 sq. ft. 6,882 sq. ft. $163
2018-08-16 Single Family 4133 Haight St Round Rock, TX 78681 $475,000 3,193 sq. ft. $149
2018-08-16 Single Family 3417 De Soto Loop Round Rock, TX 78665 $330,000 2,217 sq. ft. 7,841 sq. ft. $149
2018-08-16 Single Family 8909 Rustic Cv Round Rock, TX 78717 $365,000 2,503 sq. ft. 8,625 sq. ft. $146
2018-08-16 Single Family 4012 Darryl St Round Rock, TX 78681 $373,000 3,106 sq. ft. 0 sq. ft. $120
2018-08-16 Single Family 8064 Bassano Dr Round Rock, TX 78665 $229,000 1,405 sq. ft. 6,534 sq. ft. $163
2018-08-16 Single Family 3970 Shaker Ln Round Rock, TX 78681 $280,000 2,388 sq. ft. 8,276 sq. ft. $117
2018-08-16 Single Family 3420 Sandy Koufax Ln Round Rock, TX 78665 $249,500 2,296 sq. ft. 7,187 sq. ft. $109
2018-08-16 Single Family 1315 Anna Palm Way Round Rock, TX 78665 $200,000 1,818 sq. ft. 7,623 sq. ft. $110
2018-08-16 Single Family 4514 Wandering Vine Trl Round Rock, TX 78665 $415,000 3,509 sq. ft. 7,928 sq. ft. $118
2018-08-16 Single Family 113 Chandler Pointe Loop Round Rock, TX 78665 $257,500 2,249 sq. ft. 15,682 sq. ft. $114
2018-08-16 Single Family 4202 Summercrest Loop Round Rock, TX 78681 $314,900 2,726 sq. ft. 8,364 sq. ft. $116
2018-08-16 Single Family 2017 Monica Ln Round Rock, TX 78664 $250,000 2,446 sq. ft. 6,011 sq. ft. $102
2018-08-16 Single Family 3714 Hawk Ridge St Round Rock, TX 78665 $249,000 2,322 sq. ft. 6,708 sq. ft. $107
2018-08-16 Single Family 16012 Braesgate Dr Round Rock, TX 78717 $394,900 3,135 sq. ft. 7,797 sq. ft. $126
2018-08-15 Single Family 1107 Pike Path Round Rock, TX 78665 $241,900 2,428 sq. ft. 7,492 sq. ft. $100
2018-08-15 Single Family 3307 Luminoso Ln Round Rock, TX 78681 $479,999 3,964 sq. ft. 10,019 sq. ft. $121
2018-08-15 Single Family Traditional 1410 London Round Rock, TX 78664 $214,999 1,426 sq. ft. 7,614 sq. ft. $151
2018-08-15 Single Family 1410 London Rd Round Rock, TX 78664 $212,900 1,426 sq. ft. 7,623 sq. ft. $149
2018-08-15 Single Family 4484 Wandering Vine Trl Round Rock, TX 78665 $420,000 3,411 sq. ft. 7,318 sq. ft. $123
2018-08-15 Single Family 2601 Chandler Creek Blvd Round Rock, TX 78665 $244,625 1,840 sq. ft. 4,356 sq. ft. $133
2018-08-15 Single Family 2950 James Parker Ln Round Rock, TX 78665 $329,000 2,830 sq. ft. 11,369 sq. ft. $116
2018-08-15 Single Family 2543 Palazzo Est Round Rock, TX 78665 $407,049 2,728 sq. ft. 7,841 sq. ft. $149
2018-08-15 Single Family 5004 Savio Dr Round Rock, TX 78665 $494,637 3,935 sq. ft. 10,454 sq. ft. $126
2018-08-15 Single Family 5613 Porano Cir Round Rock, TX 78665 $259,900 1,688 sq. ft. 6,534 sq. ft. $154
2018-08-14 Single Family 16820 Squaw Valley Ln Round Rock, TX 78717 $438,850 2,947 sq. ft. 11,761 sq. ft. $149
2018-08-14 Single Family 8510 Delavan Ave Round Rock, TX 78717 $355,000 3,020 sq. ft. 9,017 sq. ft. $118
2018-08-14 Single Family 3505 De Torres Cir Round Rock, TX 78665 $315,900 2,227 sq. ft. 6,534 sq. ft. $142
2018-08-14 Single Family 6609 Casiano Cv Round Rock, TX 78665 $319,575 2,016 sq. ft. 8,712 sq. ft. $159
2018-08-14 Single Family 5813 Urbano Bnd Round Rock, TX 78665 $249,990 1,751 sq. ft. 4,792 sq. ft. $143
2018-08-14 Single Family 5837 Urbano Bnd Round Rock, TX 78665 $224,990 1,518 sq. ft. 5,227 sq. ft. $148
2018-08-14 Single Family 3720 Birdhouse Dr Round Rock, TX 78665 $195,999 1,515 sq. ft. 7,841 sq. ft. $129
2018-08-13 Single Family 1904 Farnswood Dr Round Rock, TX 78664 $210,000 1,272 sq. ft. 7,187 sq. ft. $165
2018-08-13 Single Family 2009 Chaparral Dr Round Rock, TX 78681 $268,800 1,803 sq. ft. 9,975 sq. ft. $149
2018-08-13 Single Family 908 Centerra Hills Cir Round Rock, TX 78665 $306,087 2,222 sq. ft. 6,578 sq. ft. $138
2018-08-13 Single Family 892 Centerra Hills Cir Round Rock, TX 78665 $277,819 1,662 sq. ft. 6,490 sq. ft. $167
2018-08-13 Single Family 3927 Links Ln Round Rock, TX 78664 $269,900 2,030 sq. ft. $133
2018-08-12 Single Family 704 Old Ravine Ct Round Rock, TX 78665 $300,000 3,003 sq. ft. 7,362 sq. ft. $100
2018-08-11 Single Family 406 River Crossing Trl Round Rock, TX 78665 $249,900 1,983 sq. ft. 9,583 sq. ft. $126
2018-08-11 Single Family 2414 Falcon Dr Round Rock, TX 78681 $375,000 3,276 sq. ft. 6,970 sq. ft. $114
2018-08-11 Single Family 1324 Quail Ravine Round Rock, TX 78664 $325,000 2,104 sq. ft. 22,041 sq. ft. $154
2018-08-11 Single Family 8411 Glen Canyon Dr Round Rock, TX 78681 $284,900 1,852 sq. ft. 6,447 sq. ft. $154
2018-08-11 Single Family 3102 Willow Cv Round Rock, TX 78664 $239,900 1,759 sq. ft. 10,716 sq. ft. $136
2018-08-11 Single Family 800 Cambridge Dr Round Rock, TX 78664 $224,900 1,468 sq. ft. 8,581 sq. ft. $153
2018-08-11 Single Family 2310 Stirrup Dr Round Rock, TX 78681 $214,999 1,247 sq. ft. 7,884 sq. ft. $172
2018-08-10 Single Family 519 Yucca Dr Round Rock, TX 78681 $224,000 1,214 sq. ft. 8,494 sq. ft. $185
2018-08-10 Single Family Traditional 4321 Angelico Round Rock, TX 78681 $349,999 2,192 sq. ft. 9,949 sq. ft. $160
2018-08-10 Single Family 2209 Grove Dr Round Rock, TX 78681 $225,000 1,210 sq. ft. 6,186 sq. ft. $186
2018-08-10 Single Family 4321 Angelico Ln Round Rock, TX 78681 $349,999 2,192 sq. ft. 9,932 sq. ft. $160
2018-08-10 Single Family 2114 Spring Hollow Path Round Rock, TX 78681 $235,900 1,614 sq. ft. 6,970 sq. ft. $146
2018-08-10 Single Family Ranch 8030 Arezzo Round Rock, TX 78665 $275,000 2,032 sq. ft. 6,534 sq. ft. $135
2018-08-10 Single Family 1937 Texoma Dr Round Rock, TX 78664 $289,900 1,811 sq. ft. $160
2018-08-10 Single Family 2320 Wright Cir Round Rock, TX 78664 $229,900 2,093 sq. ft. 6,142 sq. ft. $110
2018-08-10 Single Family 4301 Hannover Way Round Rock, TX 78681 $374,132 2,238 sq. ft. 10,454 sq. ft. $167
2018-08-10 Single Family 915 Fenway Park Ct Round Rock, TX 78665 $259,950 2,248 sq. ft. 8,712 sq. ft. $116
2018-08-10 Single Family 3422 Ashmere Cv Round Rock, TX 78681 $320,000 2,721 sq. ft. 10,237 sq. ft. $118
2018-08-10 Single Family 17106 Hickok Dr Round Rock, TX 78681 $275,000 1,574 sq. ft. 6,752 sq. ft. $175
2018-08-10 Single Family 105 Latitude Ln Round Rock, TX 78717 $420,000 2,508 sq. ft. 5,445 sq. ft. $167
2018-08-10 Single Family 303 Nick Price Cv Round Rock, TX 78664 $325,900 2,828 sq. ft. 8,799 sq. ft. $115
2018-08-09 Single Family 1803 Cedar Bend Dr Round Rock, TX 78681 $290,000 2,390 sq. ft. 8,581 sq. ft. $121
2018-08-09 Single Family 608 Rusk Rd Round Rock, TX 78665 $318,900 2,488 sq. ft. 6,665 sq. ft. $128
2018-08-09 Single Family 8030 Arezzo Dr Round Rock, TX 78665 $275,000 2,032 sq. ft. $135
2018-08-09 Single Family 3826 Pine Needle Ln Round Rock, TX 78681 $310,000 2,496 sq. ft. 6,882 sq. ft. $124
2018-08-09 Single Family 3715 Hawk View St Round Rock, TX 78665 $224,000 1,784 sq. ft. 7,492 sq. ft. $126
2018-08-09 Single Family 2434 Santa Barbara Loop Round Rock, TX 78665 $350,000 2,911 sq. ft. 6,490 sq. ft. $120
2018-08-09 Single Family 3705 Walleye Way Round Rock, TX 78665 $204,900 1,423 sq. ft. 6,534 sq. ft. $144
2018-08-09 Single Family 5805 Parma St Round Rock, TX 78665 $254,000 2,089 sq. ft. 6,621 sq. ft. $122
2018-08-09 Single Family 1230 Chad Dr Round Rock, TX 78665 $348,999 2,513 sq. ft. $139
2018-08-09 Single Family 3324 Lauren Nicole Ln Round Rock, TX 78665 $260,527 1,600 sq. ft. $163
2018-08-09 Single Family 3311 Lauren Nicole Ln Round Rock, TX 78665 $265,602 1,600 sq. ft. $166
2018-08-09 Single Family 2906 Live Oak St Round Rock, TX 78681 $389,900 2,369 sq. ft. 23,130 sq. ft. $165
2018-08-09 Single Family 1509 White Oak Loop Round Rock, TX 78681 $269,900 1,895 sq. ft. 5,750 sq. ft. $142
2018-08-08 Single Family 1407 Quicksilver St Round Rock, TX 78665 $239,900 1,662 sq. ft. 6,970 sq. ft. $144
2018-08-08 Single Family 1934 Savannah Dr Round Rock, TX 78681 $579,750 4,116 sq. ft. 14,680 sq. ft. $141
2018-08-08 Single Family 15313 Iola Cv Round Rock, TX 78717 $350,000 3,301 sq. ft. 8,843 sq. ft. $106
2018-08-08 Single Family 1807 Logan Dr Round Rock, TX 78664 $229,990 2,173 sq. ft. 4,661 sq. ft. $106
2018-08-08 Single Family 1404 Georgetown St Round Rock, TX 78664 $185,000 1,280 sq. ft. 13,504 sq. ft. $145
2018-08-08 Single Family 1741 Bayland St Round Rock, TX 78664 $244,900 2,310 sq. ft. 6,578 sq. ft. $106
2018-08-07 Single Family 3330 High Cotton Way Round Rock, TX 78664 $240,000 2,946 sq. ft. 11,195 sq. ft. $81
2018-08-07 Single Family 3129 Jazz St Round Rock, TX 78664 $220,000 1,631 sq. ft. 6,752 sq. ft. $135
2018-08-06 Single Family 3560 Pauling Loop Round Rock, TX 78665 $244,990 1,804 sq. ft. 5,227 sq. ft. $136
2018-08-06 Single Family 3504 Ponce De Leon Pass Round Rock, TX 78665 $399,990 2,617 sq. ft. $153
2018-08-06 Single Family 7956 Castelardo Pl Round Rock, TX 78665 $242,990 1,729 sq. ft. 4,792 sq. ft. $141
2018-08-06 Single Family 7932 Castelardo Pl Round Rock, TX 78665 $228,990 1,567 sq. ft. 4,792 sq. ft. $146
2018-08-06 Single Family 7912 Castelardo Pl Round Rock, TX 78665 $259,990 2,291 sq. ft. 4,792 sq. ft. $113
2018-08-06 Single Family 3371 Vasquez Pl Round Rock, TX 78665 $434,800 3,270 sq. ft. $133
2018-08-06 Single Family 3520 Ponce De Leon Pass Round Rock, TX 78665 $421,800 3,376 sq. ft. 10,019 sq. ft. $125
2018-08-06 Single Family 3344 Vasquez Pl Round Rock, TX 78665 $375,165 2,837 sq. ft. 7,841 sq. ft. $132
2018-08-06 Single Family 3516 Hernando Ct Round Rock, TX 78665 $369,800 2,614 sq. ft. 9,148 sq. ft. $141
2018-08-05 Single Family 1000 Riverlawn Dr Round Rock, TX 78681 $269,500 2,108 sq. ft. 6,752 sq. ft. $128
2018-08-05 Single Family Traditional 2110 Grove Drive Round Rock, TX 78681 $289,000 2,208 sq. ft. 5,358 sq. ft. $131
2018-08-05 Single Family 104 Nakoma Round Rock, TX 78664 $315,000 1,944 sq. ft. 21,998 sq. ft. $162
2018-08-05 Single Family 1737 Mesa Park Cv Round Rock, TX 78664 $250,000 2,770 sq. ft. 9,757 sq. ft. $90
2018-08-04 Single Family 610 Lilac Dr Round Rock, TX 78664 $199,950 3,253 sq. ft. 16,117 sq. ft. $61
2018-08-04 Single Family 2420 Butler Way Round Rock, TX 78665 $279,900 2,322 sq. ft. 7,405 sq. ft. $121
2018-08-04 Single Family 504 Brookstone Ct Round Rock, TX 78681 $315,000 2,352 sq. ft. 7,579 sq. ft. $134
2018-08-04 Single Family 902 Terra St Round Rock, TX 78665 $216,900 1,483 sq. ft. 5,881 sq. ft. $146
2018-08-04 Single Family 3333 Guadalajara St Round Rock, TX 78665 $399,990 3,071 sq. ft. 8,364 sq. ft. $130
2018-08-04 Single Family 8708 Sea Ash Cir Round Rock, TX 78681 $494,000 3,676 sq. ft. 10,890 sq. ft. $134
2018-08-04 Single Family 4003 Stoney Hl Round Rock, TX 78681 $225,000 1,331 sq. ft. 7,797 sq. ft. $169
2018-08-04 Single Family 4331 Rock Hill Rd Round Rock, TX 78681 $295,000 2,680 sq. ft. 8,320 sq. ft. $110
2018-08-04 Single Family 2110 Grove Dr Round Rock, TX 78681 $289,000 2,208 sq. ft. 5,358 sq. ft. $131
2018-08-03 Single Family 2006 Buckeye Ln Round Rock, TX 78664 $240,000 2,338 sq. ft. 5,489 sq. ft. $103
2018-08-03 Single Family 1009 Placid Creek Ct Round Rock, TX 78665 $325,000 2,707 sq. ft. 10,977 sq. ft. $120
2018-08-03 Single Family 1401 Circle Dr Round Rock, TX 78664 $189,999 1,339 sq. ft. 10,324 sq. ft. $142
2018-08-03 Single Family 1116 Waimea Bnd Round Rock, TX 78681 $549,000 4,272 sq. ft. 9,278 sq. ft. $129
2018-08-03 Single Family 1946 Alvarado Dr Round Rock, TX 78664 $329,900 2,217 sq. ft. 7,405 sq. ft. $149
2018-08-03 Single Family 1822 Bluffwood Pl Round Rock, TX 78665 $389,000 3,193 sq. ft. 8,799 sq. ft. $122
2018-08-03 Single Family 715 Expedition Way Round Rock, TX 78665 $425,856 2,539 sq. ft. $168
2018-08-03 Single Family 2317 Centennial Loop Round Rock, TX 78665 $446,922 3,245 sq. ft. $138
2018-08-03 Single Family 3744 Kyler Glen Rd Round Rock, TX 78681 $314,000 1,849 sq. ft. $170
2018-08-03 Single Family 3341 Vasquez Pl Round Rock, TX 78665 $448,705 2,765 sq. ft. $162
2018-08-03 Single Family 3361 Pablo Cir Round Rock, TX 78665 $368,665 2,504 sq. ft. $147
2018-08-03 Single Family 2816 Chatelle Dr Round Rock, TX 78681 $430,000 3,461 sq. ft. 8,756 sq. ft. $124
2018-08-03 Single Family 712 Wood Mesa Ct Round Rock, TX 78665 $330,000 3,285 sq. ft. 9,583 sq. ft. $100
2018-08-03 Single Family 8028 Bassano Dr Round Rock, TX 78665 $289,900 2,368 sq. ft. $122
2018-08-03 Single Family 4009 Geary St Round Rock, TX 78681 $305,000 2,774 sq. ft. 6,098 sq. ft. $110
2018-08-03 Single Family 17415 Montana Falls Dr Round Rock, TX 78681 $349,000 2,526 sq. ft. 5,663 sq. ft. $138
2018-08-03 Single Family 2611 Chowan Way Round Rock, TX 78681 $309,000 1,914 sq. ft. 18,034 sq. ft. $161
2018-08-02 Single Family 3715 Geese Rte Round Rock, TX 78665 $279,900 2,391 sq. ft. 6,011 sq. ft. $117
2018-08-02 Single Family 1616 Plume Grass Pl Round Rock, TX 78665 $239,750 1,688 sq. ft. 5,706 sq. ft. $142
2018-08-02 Single Family 1701 Oakridge Dr Round Rock, TX 78681 $329,990 2,111 sq. ft. 12,197 sq. ft. $156
2018-08-02 Single Family 8308 Sunburst Pkwy Round Rock, TX 78681 $499,900 3,980 sq. ft. 8,625 sq. ft. $126
2018-08-02 Single Family 15912 Braesgate Dr Round Rock, TX 78717 $419,000 3,148 sq. ft. 14,636 sq. ft. $133
2018-08-02 Single Family 1404 Pigeon View St Round Rock, TX 78665 $259,900 2,191 sq. ft. 7,623 sq. ft. $119
2018-08-02 Single Family 1033 Chad Loop Round Rock, TX 78665 $256,970 1,773 sq. ft. 5,227 sq. ft. $145
2018-08-02 Single Family 4015 Meadow Bluff Way Round Rock, TX 78665 $310,000 3,216 sq. ft. 7,057 sq. ft. $96
2018-08-02 Single Family 1216 Deerhound Pl Round Rock, TX 78664 $239,000 2,610 sq. ft. 5,489 sq. ft. $92
2018-08-02 Single Family 810 Centerbrook Pl Round Rock, TX 78665 $299,900 2,876 sq. ft. 6,970 sq. ft. $104
2018-08-02 Single Family 611 David Curry Dr Round Rock, TX 78664 $189,900 1,352 sq. ft. 5,881 sq. ft. $140
2018-08-01 Single Family 2700 Cedar Springs Pl Round Rock, TX 78681 $425,000 3,411 sq. ft. 9,888 sq. ft. $125
2018-08-01 Single Family 112 Blue Spruce Way Round Rock, TX 78664 $324,999 2,451 sq. ft. 7,797 sq. ft. $133
2018-08-01 Single Family 5685 Porano Cir Round Rock, TX 78665 $275,900 2,041 sq. ft. $135
2018-08-01 Single Family 8005 Manitou Springs Ct Round Rock, TX 78717 $447,000 3,199 sq. ft. 11,413 sq. ft. $140
2018-08-01 Single Family 2329 Vernell Way Round Rock, TX 78664 $234,000 2,362 sq. ft. 7,405 sq. ft. $99
2018-08-01 Single Family 5812 Marostica Lane Round Rock, TX 78665 $234,990 1,953 sq. ft. 4,792 sq. ft. $120
2018-08-01 Single Family Contemporary 1605 Balsam Way Round Rock, TX 78665 $275,000 3,224 sq. ft. 6,286 sq. ft. $85
2018-08-01 Single Family 3701 Fossilwood Way Round Rock, TX 78681 $286,500 2,219 sq. ft. 7,100 sq. ft. $129
2018-08-01 Single Family 15101 Fernhill Dr Round Rock, TX 78717 $349,900 2,265 sq. ft. 6,839 sq. ft. $154
2018-08-01 Single Family 1712 Brokenshoe Dr Round Rock, TX 78681 $229,500 1,553 sq. ft. 7,144 sq. ft. $148
2018-08-01 Single Family 3701 Bainbridge St Round Rock, TX 78681 $287,500 1,811 sq. ft. 6,098 sq. ft. $159
2018-08-01 Single Family 2958 Todd Trl Round Rock, TX 78665 $329,900 2,426 sq. ft. 9,627 sq. ft. $136
2018-08-01 Single Family 1201 Logan St Round Rock, TX 78664 $144,900 1,126 sq. ft. 8,146 sq. ft. $129
2018-08-01 Single Family 1105 Cedar Falls St Round Rock, TX 78681 $272,999 2,136 sq. ft. 7,667 sq. ft. $128
2018-07-31 Single Family 2006 Spring Hollow Path Round Rock, TX 78681 $330,000 2,304 sq. ft. 6,882 sq. ft. $143
2018-07-31 Single Family 1815 Bayland St Round Rock, TX 78664 $210,000 2,068 sq. ft. 8,538 sq. ft. $102
2018-07-31 Single Family 903 Forest Canyon Dr Round Rock, TX 78665 $500,000 3,455 sq. ft. 15,594 sq. ft. $145
2018-07-31 Single Family 1804 Whip O Will St Round Rock, TX 78681 $699,900 2,548 sq. ft. 173,717 sq. ft. $275
2018-07-31 Single Family 3700 Carmel Dr Round Rock, TX 78681 $549,000 3,063 sq. ft. 24,263 sq. ft. $179
2018-07-31 Single Family 1200 Jordan Ln Round Rock, TX 78665 $230,000 1,950 sq. ft. 10,890 sq. ft. $118
2018-07-31 Single Family 1004 Hawk Ct Round Rock, TX 78681 $312,500 2,081 sq. ft. 6,708 sq. ft. $150
2018-07-30 Single Family 1023 Chad Loop Round Rock, TX 78665 $239,000 1,760 sq. ft. 5,140 sq. ft. $136
2018-07-30 Single Family 506 Heather Dr Round Rock, TX 78664 $215,000 1,500 sq. ft. 15,115 sq. ft. $143
2018-07-30 Single Family 2627 Deep River Cir Round Rock, TX 78665 $550,000 4,599 sq. ft. 12,197 sq. ft. $120
2018-07-30 Single Family 15914 Two Rivers Cv Round Rock, TX 78717 $318,500 2,508 sq. ft. 4,835 sq. ft. $127
2018-07-30 Single Family 605 Buckskin Dr Round Rock, TX 78681 $200,000 1,376 sq. ft. 7,536 sq. ft. $145
2018-07-30 Single Family 529 Trinity Bnd Round Rock, TX 78664 $269,900 1,953 sq. ft. 5,227 sq. ft. $138
2018-07-30 Single Family 1 Bluff Vw Round Rock, TX 78664 $425,000 3,445 sq. ft. 20,386 sq. ft. $123
2018-07-30 Single Family 15400 Interlachen Dr Round Rock, TX 78717 $348,800 1,920 sq. ft. 2,614 sq. ft. $182
2018-07-29 Single Family 3214 Dawn Mesa Ct Round Rock, TX 78665 $289,900 2,362 sq. ft. 8,538 sq. ft. $123
2018-07-28 Single Family 1905 Creek Crest Way Round Rock, TX 78664 $323,000 3,225 sq. ft. 8,886 sq. ft. $100
2018-07-28 Single Family 3722 Bainbridge St Round Rock, TX 78681 $299,900 2,732 sq. ft. 2,614 sq. ft. $110
2018-07-28 Single Family 8100 Full Moon Trl Round Rock, TX 78681 $374,990 2,996 sq. ft. 8,712 sq. ft. $125
2018-07-28 Single Family 1819 Cedar Bend Dr Round Rock, TX 78681 $345,900 2,718 sq. ft. 8,407 sq. ft. $127
2018-07-28 Single Family 2800 Joe Dimaggio Blvd Round Rock, TX 78665 $271,490 1,383 sq. ft. 4,356 sq. ft. $196
2018-07-28 Single Family 2800 Joe Dimaggio Blvd Round Rock, TX 78665 $270,490 1,398 sq. ft. 4,792 sq. ft. $193
2018-07-28 Single Family 2800 Joe Dimaggio Blvd Round Rock, TX 78665 $261,490 1,292 sq. ft. 4,792 sq. ft. $202
2018-07-28 Single Family 2800 Joe Dimaggio Blvd Round Rock, TX 78665 $270,490 1,383 sq. ft. 4,356 sq. ft. $196
2018-07-27 Single Family 16308 Double Eagle Dr Round Rock, TX 78717 $435,000 2,767 sq. ft. 7,841 sq. ft. $157
2018-07-27 Single Family Ranch 1804 Robb Round Rock, TX 78664 $249,900 1,608 sq. ft. 21,510 sq. ft. $155
2018-07-27 Single Family 1004 Oaklands Dr Round Rock, TX 78681 $335,000 2,790 sq. ft. 8,494 sq. ft. $120
2018-07-27 Single Family 4202 Engadina Pass Round Rock, TX 78665 $334,900 3,060 sq. ft. 9,583 sq. ft. $109
2018-07-27 Single Family 1804 Robb Ln Round Rock, TX 78664 $249,900 1,608 sq. ft. 21,519 sq. ft. $155
2018-07-27 Single Family 1098 Sussex Way Round Rock, TX 78665 $292,500 2,270 sq. ft. 7,710 sq. ft. $129
2018-07-27 Single Family 1010 Jennifer Ln Round Rock, TX 78665 $265,000 1,635 sq. ft. 8,581 sq. ft. $162
2018-07-27 Single Family 3011 Hidalgo Loop Round Rock, TX 78665 $319,500 2,761 sq. ft. 7,405 sq. ft. $116
2018-07-27 Single Family 1311 Hillridge Dr Round Rock, TX 78665 $425,000 3,083 sq. ft. 10,019 sq. ft. $138
2018-07-27 Single Family 1407 Aleman Cv Round Rock, TX 78681 $129,900 1,120 sq. ft. 30,448 sq. ft. $116
2018-07-26 Single Family 2141 Woodston Dr Round Rock, TX 78681 $310,000 2,250 sq. ft. 6,839 sq. ft. $138
2018-07-26 Single Family 1111 Garden Path Dr Round Rock, TX 78664 $205,000 1,942 sq. ft. 5,227 sq. ft. $106
2018-07-26 Single Family 601 Deep Wood Dr Round Rock, TX 78681 $315,000 2,098 sq. ft. 14,375 sq. ft. $150
2018-07-26 Single Family 1140 Forest Bluff Trl Round Rock, TX 78665 $349,900 2,529 sq. ft. 14,854 sq. ft. $138
2018-07-26 Single Family 657 Reggie Jackson Trl Round Rock, TX 78665 $229,900 1,848 sq. ft. 6,273 sq. ft. $124
2018-07-26 Single Family 1300 Deerhound Pl Round Rock, TX 78664 $234,900 1,544 sq. ft. 6,665 sq. ft. $152
2018-07-26 Single Family 1609 Westmeadow Trl Round Rock, TX 78665 $349,000 3,038 sq. ft. 7,797 sq. ft. $115
2018-07-26 Single Family 3108 Spruce Cv Round Rock, TX 78664 $245,000 2,282 sq. ft. 6,926 sq. ft. $107
2018-07-26 Single Family 1602 Bluff Dr Round Rock, TX 78681 $295,000 2,561 sq. ft. 15,682 sq. ft. $115
2018-07-26 Single Family 8417 Priest River Dr Round Rock, TX 78681 $287,500 1,878 sq. ft. 9,627 sq. ft. $153
2018-07-25 Single Family 16616 Dalmahoy Dr Round Rock, TX 78717 $385,000 2,707 sq. ft. 8,320 sq. ft. $142
2018-07-25 Single Family 3030 Alton Pl Round Rock, TX 78665 $675,022 3,581 sq. ft. $188
2018-07-25 Single Family 15624 Interlachen Dr Round Rock, TX 78717 $335,000 2,225 sq. ft. 7,797 sq. ft. $151
2018-07-25 Single Family 16613 Barrhead Cv Round Rock, TX 78717 $415,000 2,713 sq. ft. 8,407 sq. ft. $153
2018-07-25 Single Family 3133 Blue Ridge Dr Round Rock, TX 78681 $307,118 2,367 sq. ft. 10,106 sq. ft. $130
2018-07-25 Single Family 10017 Double Eagle Pass Round Rock, TX 78717 $479,997 2,637 sq. ft. 9,148 sq. ft. $182
2018-07-25 Single Family 8508 Glen Canyon Dr Round Rock, TX 78681 $299,999 2,176 sq. ft. 6,142 sq. ft. $138
2018-07-24 Single Family 1560 Lorson Loop Round Rock, TX 78665 $242,900 1,977 sq. ft. 12,850 sq. ft. $123
2018-07-24 Single Family 4433 Hunters Lodge Dr Round Rock, TX 78681 $305,000 2,334 sq. ft. 7,100 sq. ft. $131
2018-07-24 Single Family 1264 Hyde Park Dr Round Rock, TX 78665 $274,000 2,668 sq. ft. 7,667 sq. ft. $103
2018-07-24 Single Family 1120 Chad Dr Round Rock, TX 78665 $257,990 1,687 sq. ft. 6,534 sq. ft. $153
2018-07-24 Single Family 3245 Veneto Way Round Rock, TX 78665 $405,292 2,659 sq. ft. 11,326 sq. ft. $152
2018-07-24 Single Family 3212 Stella Dr Round Rock, TX 78665 $424,228 2,880 sq. ft. 8,276 sq. ft. $147
2018-07-24 Single Family 3249 Aurelia Ln Round Rock, TX 78665 $273,000 1,344 sq. ft. 6,970 sq. ft. $203
2018-07-24 Single Family 1904 Dixie Round Rock, TX 78664 $170,000 1,075 sq. ft. 8,146 sq. ft. $158
2018-07-24 Single Family 2664 Enza Dr Round Rock, TX 78665 $382,724 2,726 sq. ft. 6,970 sq. ft. $140
2018-07-23 Single Family 5920 Angelo St Round Rock, TX 78665 $289,999 2,610 sq. ft. 8,712 sq. ft. $111
2018-07-23 Single Family 2705 Claremont Ct Round Rock, TX 78665 $255,999 1,927 sq. ft. 7,013 sq. ft. $133
2018-07-23 Single Family 5808 Marostica Ln Round Rock, TX 78665 $253,990 2,059 sq. ft. 4,792 sq. ft. $123
2018-07-23 Single Family 2110 Aster Way Round Rock, TX 78665 $245,500 2,887 sq. ft. 6,098 sq. ft. $85
2018-07-22 Single Family 3816 Sapphire Loop Round Rock, TX 78681 $442,000 3,908 sq. ft. 8,494 sq. ft. $113
2018-07-22 Single Family 3435 Shiraz Loop Round Rock, TX 78665 $267,000 2,230 sq. ft. 6,708 sq. ft. $120
2018-07-21 Single Family 767 Bent Wood Pl Round Rock, TX 78665 $289,000 2,695 sq. ft. 7,884 sq. ft. $107
2018-07-21 Single Family 4179 Van Ness Ave Round Rock, TX 78681 $319,990 2,042 sq. ft. $157